Time;durP1;ratioP1;P1;durP2;ratioP2;P2;SDS_P1;SDS_P2;PMS_P1;PMS_P2;Temp;Humidity;BMP_temperature;BMP_pressure;BME280_temperature;BME280_humidity;BME280_pressure;Samples;Min_cycle;Max_cycle;Signal;HPM_P1;HPM_P2
2022/10/26 00:32:56;;;;;;;4.27;3.93;;;13.70;99.90;;;;;;6093267;23;20485;-81
2022/10/26 00:35:24;;;;;;;5.93;4.43;;;13.70;99.90;;;;;;6190372;23;20417;-81
2022/10/26 00:37:54;;;;;;;5.37;4.50;;;13.70;99.90;;;;;;6189371;23;20941;-81
2022/10/26 00:40:23;;;;;;;5.50;4.60;;;13.70;99.90;;;;;;6191258;23;20406;-81
2022/10/26 00:42:51;;;;;;;5.23;4.83;;;13.80;99.90;;;;;;6190586;23;20453;-81
2022/10/26 00:45:25;;;;;;;4.57;4.00;;;13.80;99.90;;;;;;6190046;23;20425;-81
2022/10/26 00:47:56;;;;;;;4.70;3.90;;;13.80;99.90;;;;;;6189972;23;20416;-82
2022/10/26 00:50:28;;;;;;;5.63;4.70;;;13.80;99.90;;;;;;6189813;23;20395;-81
2022/10/26 00:52:58;;;;;;;4.63;4.20;;;13.90;99.90;;;;;;6189771;23;20430;-81
2022/10/26 00:55:29;;;;;;;4.27;3.93;;;13.90;99.90;;;;;;6186178;23;20406;-81
2022/10/26 00:57:57;;;;;;;5.00;4.70;;;13.90;99.90;;;;;;6185588;23;20453;-81
2022/10/26 01:00:28;;;;;;;4.60;4.27;;;13.90;99.90;;;;;;6185665;23;20728;-81
2022/10/26 01:03:01;;;;;;;4.27;3.97;;;13.90;99.90;;;;;;6186637;23;20507;-81
2022/10/26 01:05:35;;;;;;;4.60;4.10;;;13.90;99.90;;;;;;6187857;23;20421;-81
2022/10/26 01:08:02;;;;;;;7.60;4.70;;;13.90;99.90;;;;;;6191966;23;20414;-81
2022/10/26 01:10:30;;;;;;;7.23;4.03;;;14.00;99.90;;;;;;6187192;23;20917;-81
2022/10/26 01:12:58;;;;;;;7.30;3.67;;;14.00;99.90;;;;;;6186948;23;20440;-81
2022/10/26 01:15:36;;;;;;;3.87;3.57;;;14.00;99.90;;;;;;6187625;23;20416;-81
2022/10/26 01:18:10;;;;;;;5.77;4.10;;;14.00;99.90;;;;;;6187970;23;20398;-81
2022/10/26 01:21:13;;;;;;;3.23;2.63;;;13.90;99.90;;;;;;6187402;23;20807;-81
2022/10/26 01:23:57;;;;;;;3.90;3.70;;;13.90;99.90;;;;;;6187890;23;20779;-81
2022/10/26 01:26:44;;;;;;;3.50;3.20;;;13.90;99.90;;;;;;6188391;23;20398;-81
2022/10/26 01:29:35;;;;;;;3.40;2.83;;;14.00;99.90;;;;;;6189580;23;20476;-80
2022/10/26 01:32:10;;;;;;;3.27;2.67;;;14.00;99.90;;;;;;6185366;23;20464;-81
2022/10/26 01:34:45;;;;;;;4.40;4.10;;;14.00;99.90;;;;;;6187363;23;20417;-81
2022/10/26 01:37:15;;;;;;;2.77;2.57;;;14.00;99.90;;;;;;6186884;23;20815;-81
2022/10/26 01:39:48;;;;;;;5.67;4.20;;;14.10;99.90;;;;;;6186991;23;20440;-81
2022/10/26 01:42:18;;;;;;;2.73;2.50;;;14.10;99.90;;;;;;6187665;23;20448;-81
2022/10/26 01:44:59;;;;;;;3.57;3.20;;;14.10;99.90;;;;;;6187787;23;20796;-81
2022/10/26 01:47:30;;;;;;;7.73;3.10;;;14.10;99.90;;;;;;6188087;23;20424;-81
2022/10/26 01:49:59;;;;;;;3.10;2.90;;;14.10;99.90;;;;;;6187467;23;20410;-81
2022/10/26 01:52:26;;;;;;;3.67;3.37;;;14.10;99.90;;;;;;6187289;23;20500;-81
2022/10/26 01:55:02;;;;;;;6.20;4.30;;;14.10;99.90;;;;;;6187030;23;20913;-82
2022/10/26 01:57:33;;;;;;;3.67;3.33;;;14.00;99.90;;;;;;6187684;23;20733;-81
2022/10/26 02:00:09;;;;;;;5.83;2.90;;;14.00;99.90;;;;;;6188956;23;20743;-83
2022/10/26 02:02:53;;;;;;;3.63;3.00;;;14.00;99.90;;;;;;6162665;23;20974;-84
2022/10/26 02:05:31;;;;;;;2.93;2.73;;;14.10;99.90;;;;;;6188860;23;20410;-83
2022/10/26 02:08:11;;;;;;;3.50;3.20;;;14.10;99.90;;;;;;6189952;23;20499;-84
2022/10/26 02:10:46;;;;;;;2.80;2.50;;;14.10;99.90;;;;;;6187415;23;20473;-83
2022/10/26 02:13:19;;;;;;;4.00;3.23;;;14.10;99.90;;;;;;6187811;23;20439;-83
2022/10/26 02:15:53;;;;;;;3.73;3.10;;;14.10;99.90;;;;;;6186143;23;20394;-83
2022/10/26 02:18:29;;;;;;;3.37;3.07;;;14.10;99.90;;;;;;6186655;23;20425;-82
2022/10/26 02:20:58;;;;;;;4.07;3.33;;;14.10;99.90;;;;;;6186826;23;20399;-83
2022/10/26 02:23:27;;;;;;;2.77;2.67;;;14.10;99.90;;;;;;6187266;23;20449;-83
2022/10/26 02:25:58;;;;;;;4.10;3.67;;;14.00;99.90;;;;;;6187014;23;20908;-82
2022/10/26 02:28:30;;;;;;;4.60;3.43;;;14.00;99.90;;;;;;6186609;23;20417;-82
2022/10/26 02:31:00;;;;;;;3.87;3.33;;;13.90;99.90;;;;;;6186707;23;20394;-82
2022/10/26 02:33:33;;;;;;;4.23;3.83;;;13.90;99.90;;;;;;6187093;23;20944;-83
2022/10/26 02:36:03;;;;;;;3.90;3.37;;;13.90;99.90;;;;;;6189119;23;20516;-83
2022/10/26 02:38:32;;;;;;;3.40;3.20;;;13.90;99.90;;;;;;6189565;23;20789;-82
2022/10/26 02:41:01;;;;;;;3.30;2.90;;;13.90;99.90;;;;;;6186316;23;20441;-82
2022/10/26 02:43:29;;;;;;;4.03;2.93;;;13.90;99.90;;;;;;6186481;23;20449;-83
2022/10/26 02:46:01;;;;;;;5.07;3.53;;;13.90;99.90;;;;;;6186160;23;20923;-82
2022/10/26 02:48:29;;;;;;;4.37;4.17;;;13.80;99.90;;;;;;6186436;23;20481;-82
2022/10/26 02:51:00;;;;;;;3.13;2.83;;;13.80;99.90;;;;;;6186276;23;20916;-82
2022/10/26 02:53:31;;;;;;;5.37;4.87;;;13.90;99.90;;;;;;6185852;23;20429;-83
2022/10/26 02:56:03;;;;;;;4.17;3.77;;;13.90;99.90;;;;;;6185485;23;20720;-82
2022/10/26 02:58:33;;;;;;;7.80;3.70;;;13.80;99.90;;;;;;6185815;23;20393;-82
2022/10/26 03:01:00;;;;;;;7.47;6.23;;;13.80;99.90;;;;;;6185912;23;20412;-83
2022/10/26 03:03:29;;;;;;;4.87;3.57;;;13.80;99.90;;;;;;6186257;23;20969;-82
2022/10/26 03:05:56;;;;;;;4.00;3.60;;;13.90;99.90;;;;;;6186723;23;20509;-83
2022/10/26 03:08:24;;;;;;;4.50;3.60;;;13.90;99.90;;;;;;6186223;23;20467;-83
2022/10/26 03:10:51;;;;;;;5.47;3.70;;;13.90;99.90;;;;;;6186805;23;20925;-83
2022/10/26 03:13:18;;;;;;;4.73;3.70;;;13.90;99.90;;;;;;6186501;23;20422;-82
2022/10/26 03:15:45;;;;;;;6.73;4.10;;;13.90;99.90;;;;;;6186632;23;20418;-83
2022/10/26 03:18:12;;;;;;;4.20;3.07;;;14.00;99.90;;;;;;6186798;23;20422;-83
2022/10/26 03:20:43;;;;;;;3.83;3.07;;;14.00;99.90;;;;;;6186743;23;20500;-83
2022/10/26 03:23:11;;;;;;;3.47;2.70;;;14.00;99.90;;;;;;6186433;23;20452;-82
2022/10/26 03:25:38;;;;;;;4.03;2.97;;;14.00;99.90;;;;;;6186070;23;20414;-82
2022/10/26 03:28:06;;;;;;;4.50;3.23;;;13.90;99.90;;;;;;6186594;23;20505;-83
2022/10/26 03:30:33;;;;;;;5.70;2.93;;;14.00;99.90;;;;;;6186349;23;20410;-82
2022/10/26 03:33:00;;;;;;;2.93;2.73;;;13.90;99.90;;;;;;6191554;23;20520;-82
2022/10/26 03:35:26;;;;;;;7.77;3.00;;;13.80;99.90;;;;;;6192866;23;20481;-83
2022/10/26 03:37:55;;;;;;;6.23;2.87;;;13.60;99.90;;;;;;6186237;23;20909;-83
2022/10/26 03:40:21;;;;;;;3.03;2.83;;;13.50;99.90;;;;;;6186646;23;20488;-83
2022/10/26 03:42:48;;;;;;;3.60;2.90;;;13.60;99.90;;;;;;6186745;23;20436;-82
2022/10/26 03:45:15;;;;;;;6.13;2.57;;;13.60;99.90;;;;;;6186636;23;20413;-82
2022/10/26 03:47:46;;;;;;;3.00;2.80;;;13.70;99.90;;;;;;6186856;23;20416;-83
2022/10/26 03:50:14;;;;;;;3.00;2.33;;;13.80;99.90;;;;;;6186564;23;20424;-82
2022/10/26 03:52:41;;;;;;;2.50;2.40;;;13.90;99.90;;;;;;6186177;23;20442;-80
2022/10/26 03:55:10;;;;;;;4.97;3.27;;;13.90;99.90;;;;;;6186545;23;20402;-81
2022/10/26 03:57:41;;;;;;;3.40;3.07;;;13.90;99.90;;;;;;6186422;23;20411;-81
2022/10/26 04:00:09;;;;;;;3.03;2.83;;;14.00;99.90;;;;;;6186072;23;20399;-81
2022/10/26 04:02:36;;;;;;;3.90;3.50;;;14.10;99.90;;;;;;6186517;23;20430;-81
2022/10/26 04:05:03;;;;;;;2.60;2.40;;;14.20;99.90;;;;;;6186386;23;20768;-81
2022/10/26 04:07:30;;;;;;;2.80;2.60;;;14.20;99.90;;;;;;6185799;23;20410;-81
2022/10/26 04:09:57;;;;;;;3.43;3.13;;;14.30;99.90;;;;;;6186101;23;20505;-83
2022/10/26 04:12:25;;;;;;;3.17;2.80;;;14.40;99.90;;;;;;6186678;23;20444;-83
2022/10/26 04:14:52;;;;;;;5.03;3.97;;;14.40;99.90;;;;;;6186424;23;20498;-81
2022/10/26 04:17:19;;;;;;;3.40;3.03;;;14.50;99.90;;;;;;6186576;23;20410;-81
2022/10/26 04:19:45;;;;;;;2.63;2.53;;;14.50;99.90;;;;;;6186523;23;20416;-81
2022/10/26 04:22:12;;;;;;;3.60;2.60;;;14.50;99.90;;;;;;6186317;23;20435;-81
2022/10/26 04:24:39;;;;;;;2.53;2.40;;;14.40;99.90;;;;;;6185806;23;20442;-81
2022/10/26 04:27:06;;;;;;;3.23;2.90;;;14.60;99.90;;;;;;6186469;23;20414;-81
2022/10/26 04:29:34;;;;;;;3.10;2.90;;;14.60;99.90;;;;;;6186520;23;20409;-81
2022/10/26 04:32:00;;;;;;;3.57;3.27;;;14.50;99.90;;;;;;6187659;23;20472;-81
2022/10/26 04:34:27;;;;;;;3.00;2.80;;;14.60;99.90;;;;;;6187419;23;20418;-83
2022/10/26 04:36:55;;;;;;;3.93;3.00;;;14.40;99.90;;;;;;6187637;23;20409;-82
2022/10/26 04:39:21;;;;;;;4.77;3.10;;;14.10;99.90;;;;;;6188691;23;20409;-82
2022/10/26 04:41:49;;;;;;;3.17;2.83;;;14.10;99.90;;;;;;6188884;23;20406;-82
2022/10/26 04:44:15;;;;;;;2.73;2.53;;;14.10;99.90;;;;;;6188331;23;20456;-82
2022/10/26 04:46:43;;;;;;;6.40;3.03;;;14.00;99.90;;;;;;6189133;23;20420;-82
2022/10/26 04:49:10;;;;;;;3.93;3.53;;;14.10;99.90;;;;;;6188493;23;20406;-83
2022/10/26 04:51:37;;;;;;;4.67;3.00;;;14.00;99.90;;;;;;6188721;23;20413;-83
2022/10/26 04:54:04;;;;;;;3.53;3.23;;;14.00;99.90;;;;;;6188333;23;20412;-83
2022/10/26 04:56:32;;;;;;;2.93;2.73;;;14.00;99.90;;;;;;6188628;23;20413;-83
2022/10/26 04:58:59;;;;;;;3.60;3.30;;;14.00;99.90;;;;;;6188139;23;20449;-83
2022/10/26 05:01:26;;;;;;;4.77;3.10;;;14.10;99.90;;;;;;6188934;23;20410;-83
2022/10/26 05:03:54;;;;;;;3.43;2.93;;;14.00;99.90;;;;;;6188622;23;20476;-83
2022/10/26 05:06:22;;;;;;;5.03;3.63;;;14.10;99.90;;;;;;6188971;23;20410;-83
2022/10/26 05:08:49;;;;;;;3.50;3.30;;;14.10;99.90;;;;;;6188420;23;20409;-83
2022/10/26 05:11:16;;;;;;;4.10;3.00;;;14.10;99.90;;;;;;6188635;23;20748;-83
2022/10/26 05:13:42;;;;;;;3.30;3.10;;;14.10;99.90;;;;;;6188634;23;20509;-83
2022/10/26 05:16:09;;;;;;;3.10;2.47;;;14.20;99.90;;;;;;6188433;23;20733;-83
2022/10/26 05:18:36;;;;;;;5.33;3.40;;;14.20;99.90;;;;;;6188575;23;20417;-81
2022/10/26 05:21:04;;;;;;;3.60;2.53;;;14.30;99.90;;;;;;6188523;23;20413;-82
2022/10/26 05:23:31;;;;;;;3.73;2.73;;;14.30;99.90;;;;;;6188578;23;20425;-81
2022/10/26 05:25:58;;;;;;;2.70;2.50;;;14.30;99.90;;;;;;6187944;23;20410;-82
2022/10/26 05:28:24;;;;;;;3.50;2.57;;;14.30;99.90;;;;;;6188034;23;20497;-82
2022/10/26 05:30:51;;;;;;;3.00;2.80;;;14.30;99.90;;;;;;6188064;23;20418;-81
2022/10/26 05:33:18;;;;;;;3.90;3.57;;;14.30;99.90;;;;;;6187775;23;20795;-82
2022/10/26 05:35:45;;;;;;;2.60;2.43;;;14.30;99.90;;;;;;6187948;23;20513;-82
2022/10/26 05:38:15;;;;;;;3.33;2.40;;;14.40;99.90;;;;;;6187773;23;20739;-82
2022/10/26 05:40:52;;;;;;;4.33;2.33;;;14.30;99.90;;;;;;6191019;23;20469;-81
2022/10/26 05:43:21;;;;;;;3.10;2.80;;;14.30;99.90;;;;;;6191606;23;20436;-81
2022/10/26 05:45:50;;;;;;;3.00;2.80;;;14.20;99.90;;;;;;6186568;23;20451;-80
2022/10/26 05:48:17;;;;;;;4.63;2.80;;;14.30;99.90;;;;;;6186444;23;20425;-82
2022/10/26 05:50:45;;;;;;;3.37;2.73;;;14.30;99.90;;;;;;6187891;23;20405;-81
2022/10/26 05:53:12;;;;;;;2.00;1.90;;;14.40;99.90;;;;;;6187119;23;20438;-81
2022/10/26 05:56:00;;;;;;;4.30;2.10;;;14.50;99.90;;;;;;6187331;23;20437;-82
2022/10/26 05:58:27;;;;;;;3.37;2.13;;;14.50;99.90;;;;;;6187390;23;20394;-81
2022/10/26 06:01:13;;;;;;;3.17;2.87;;;14.60;99.90;;;;;;6187878;23;20433;-81
2022/10/26 06:04:09;;;;;;;2.07;1.97;;;14.70;99.90;;;;;;6187898;23;20437;-82
2022/10/26 06:13:45;;;;;;;2.30;2.10;;;14.70;99.90;;;;;;6161239;23;20944;-81
2022/10/26 06:16:35;;;;;;;2.40;2.20;;;14.70;99.90;;;;;;6188717;23;20424;-82
2022/10/26 06:44:51;;;;;;;2.73;2.40;;;14.50;99.90;;;;;;6154015;23;20454;-85
2022/10/26 06:47:30;;;;;;;2.60;2.40;;;14.40;99.90;;;;;;6156714;23;20395;-86
2022/10/26 06:50:29;;;;;;;2.60;2.40;;;14.50;99.90;;;;;;6155361;23;20466;-88
2022/10/26 06:53:10;;;;;;;2.43;2.23;;;14.50;99.90;;;;;;6155039;23;20417;-87
2022/10/26 06:55:46;;;;;;;2.37;2.17;;;14.50;99.90;;;;;;6155196;23;20803;-86
2022/10/26 06:58:20;;;;;;;3.10;2.33;;;14.60;99.90;;;;;;6157859;23;20406;-85
2022/10/26 07:00:51;;;;;;;5.13;2.90;;;14.50;99.90;;;;;;6155893;23;20400;-86
2022/10/26 07:03:18;;;;;;;3.23;2.93;;;14.60;99.90;;;;;;6154711;23;20445;-86
2022/10/26 07:05:46;;;;;;;2.50;2.30;;;14.60;99.90;;;;;;6154861;23;20525;-86
2022/10/26 07:08:13;;;;;;;2.33;2.13;;;14.70;99.90;;;;;;6154449;23;20419;-86
2022/10/26 07:10:41;;;;;;;2.33;2.13;;;14.70;99.90;;;;;;6155346;23;20407;-86
2022/10/26 07:13:08;;;;;;;2.80;2.43;;;14.80;99.90;;;;;;6155327;23;20447;-86
2022/10/26 07:15:36;;;;;;;2.67;2.47;;;14.80;99.90;;;;;;6155224;23;20437;-86
2022/10/26 07:18:06;;;;;;;6.40;3.20;;;14.90;99.90;;;;;;6155046;23;20411;-86
2022/10/26 07:20:36;;;;;;;4.63;2.37;;;14.90;99.90;;;;;;6155123;23;20454;-86
2022/10/26 07:23:05;;;;;;;2.33;2.13;;;14.90;99.90;;;;;;6155507;23;20421;-86
2022/10/26 07:25:34;;;;;;;2.50;1.97;;;14.90;99.90;;;;;;6156191;23;20454;-86
2022/10/26 07:28:02;;;;;;;2.43;2.20;;;15.10;99.90;;;;;;6155342;23;20406;-86
2022/10/26 07:30:30;;;;;;;6.47;3.10;;;15.10;99.90;;;;;;6155393;23;20453;-87
2022/10/26 07:33:00;;;;;;;2.10;1.90;;;15.20;99.90;;;;;;6155188;23;20752;-87
2022/10/26 07:35:29;;;;;;;3.00;2.73;;;15.20;99.90;;;;;;6170596;23;20518;-87
2022/10/26 07:37:59;;;;;;;2.47;2.33;;;15.30;99.90;;;;;;6154877;23;20482;-86
2022/10/26 07:40:27;;;;;;;7.13;3.20;;;15.30;99.90;;;;;;6155182;23;20501;-86
2022/10/26 07:42:57;;;;;;;3.60;2.50;;;15.40;99.90;;;;;;6154805;23;20417;-86
2022/10/26 07:45:24;;;;;;;8.17;3.67;;;15.40;99.90;;;;;;6154994;23;20514;-86
2022/10/26 07:47:52;;;;;;;4.37;2.93;;;15.40;99.90;;;;;;6154230;23;20420;-86
2022/10/26 07:50:19;;;;;;;2.77;2.57;;;15.50;99.90;;;;;;6154514;23;20932;-86
2022/10/26 07:52:48;;;;;;;4.80;3.27;;;15.40;99.90;;;;;;6154887;23;20416;-86
2022/10/26 07:55:17;;;;;;;2.90;2.50;;;15.50;99.90;;;;;;6154153;23;20443;-86
2022/10/26 07:57:44;;;;;;;4.90;2.80;;;15.60;99.90;;;;;;6154251;23;20450;-86
2022/10/26 08:00:12;;;;;;;6.30;3.07;;;15.60;99.90;;;;;;6154952;23;20769;-86
2022/10/26 08:02:39;;;;;;;4.80;2.90;;;15.60;99.90;;;;;;6155010;23;20750;-86
2022/10/26 08:05:07;;;;;;;4.17;2.90;;;15.60;99.90;;;;;;6154626;23;20454;-86
2022/10/26 08:07:33;;;;;;;2.60;2.40;;;15.70;99.90;;;;;;6154871;23;20476;-87
2022/10/26 08:10:03;;;;;;;3.13;2.87;;;15.70;99.90;;;;;;6155166;23;20410;-87
2022/10/26 08:12:30;;;;;;;4.00;3.00;;;15.70;99.90;;;;;;6154840;23;21102;-87
2022/10/26 08:14:59;;;;;;;3.03;2.40;;;15.90;99.90;;;;;;6154805;23;20423;-86
2022/10/26 08:17:25;;;;;;;3.87;3.47;;;16.00;99.90;;;;;;6154609;23;20429;-86
2022/10/26 08:19:52;;;;;;;3.20;2.90;;;16.00;99.90;;;;;;6154541;23;20422;-87
2022/10/26 08:22:19;;;;;;;3.03;2.83;;;16.10;99.90;;;;;;6155074;23;20722;-86
2022/10/26 08:24:46;;;;;;;2.70;2.50;;;16.10;99.90;;;;;;6155535;23;20498;-88
2022/10/26 08:27:16;;;;;;;4.40;2.63;;;16.20;99.90;;;;;;6155244;23;20399;-87
2022/10/26 08:29:43;;;;;;;5.00;3.30;;;16.20;99.90;;;;;;6170603;23;20423;-88
2022/10/26 08:32:10;;;;;;;5.40;3.40;;;16.30;99.90;;;;;;6155778;23;20423;-86
2022/10/26 08:34:36;;;;;;;3.97;3.20;;;16.30;99.90;;;;;;6154765;23;20427;-87
2022/10/26 08:37:03;;;;;;;5.13;3.27;;;16.30;99.90;;;;;;6155090;23;20789;-86
2022/10/26 08:39:30;;;;;;;2.97;2.70;;;16.30;99.90;;;;;;6154703;23;20417;-87
2022/10/26 08:42:04;;;;;;;3.77;3.47;;;16.50;99.90;;;;;;6154800;23;20415;-87
2022/10/26 08:44:39;;;;;;;5.07;3.10;;;16.50;99.90;;;;;;6154502;23;20521;-86
2022/10/26 08:47:12;;;;;;;2.80;2.60;;;16.50;99.90;;;;;;6154808;23;20474;-87
2022/10/26 08:49:45;;;;;;;2.67;2.40;;;16.70;99.90;;;;;;6154406;23;20885;-86
2022/10/26 08:52:17;;;;;;;4.10;2.57;;;16.70;99.90;;;;;;6154596;23;20392;-86
2022/10/26 08:54:48;;;;;;;3.10;2.80;;;16.60;99.90;;;;;;6154789;23;20466;-86
2022/10/26 08:57:21;;;;;;;3.80;3.50;;;16.80;99.90;;;;;;6154655;23;20703;-87
2022/10/26 08:59:56;;;;;;;5.33;3.43;;;16.70;99.90;;;;;;6154482;23;20451;-86
2022/10/26 09:02:23;;;;;;;4.10;3.70;;;16.90;99.90;;;;;;6154618;23;20483;-86
2022/10/26 09:04:51;;;;;;;3.37;3.07;;;17.00;99.90;;;;;;6154178;23;20501;-86
2022/10/26 09:07:49;;;;;;;5.23;3.40;;;16.90;99.90;;;;;;6154601;23;20532;-86
2022/10/26 09:10:26;;;;;;;3.70;3.00;;;17.10;99.90;;;;;;6154644;23;20404;-86
2022/10/26 09:13:00;;;;;;;3.43;2.87;;;17.20;99.90;;;;;;6154458;23;20404;-86
2022/10/26 09:15:40;;;;;;;3.20;2.70;;;17.30;99.90;;;;;;6154739;23;20437;-86
2022/10/26 09:18:21;;;;;;;5.47;2.97;;;17.20;99.90;;;;;;6154276;23;20388;-86
2022/10/26 09:20:59;;;;;;;2.90;2.60;;;17.40;99.90;;;;;;6154669;23;20400;-86
2022/10/26 09:23:41;;;;;;;3.53;2.70;;;17.40;99.90;;;;;;6161603;23;20393;-88
2022/10/26 09:26:13;;;;;;;3.23;2.67;;;17.50;99.90;;;;;;6162899;23;20456;-86
2022/10/26 09:28:44;;;;;;;3.00;2.70;;;17.50;99.90;;;;;;6156289;23;20731;-87
2022/10/26 09:31:17;;;;;;;3.80;2.73;;;17.60;99.90;;;;;;6155982;23;20408;-86
2022/10/26 09:33:43;;;;;;;3.03;2.87;;;17.70;99.90;;;;;;6156250;23;20734;-87
2022/10/26 09:36:15;;;;;;;3.57;2.73;;;17.80;99.90;;;;;;6156116;23;20748;-86
2022/10/26 09:38:47;;;;;;;3.47;2.37;;;17.80;99.90;;;;;;6156046;23;20407;-86
2022/10/26 09:41:24;;;;;;;4.77;2.67;;;17.70;99.90;;;;;;6156361;23;20409;-86
2022/10/26 09:43:56;;;;;;;3.23;2.57;;;17.80;99.90;;;;;;6156322;23;20493;-86
2022/10/26 09:46:29;;;;;;;3.93;3.63;;;17.80;99.90;;;;;;6156285;23;20476;-86
2022/10/26 09:49:03;;;;;;;3.30;2.70;;;18.00;99.90;;;;;;6156183;23;20961;-86
2022/10/26 09:51:31;;;;;;;3.20;2.50;;;18.10;99.90;;;;;;6156462;23;20882;-86
2022/10/26 09:54:02;;;;;;;1.90;1.80;;;18.30;99.90;;;;;;6155764;23;20515;-87
2022/10/26 09:56:30;;;;;;;4.37;2.50;;;18.50;99.90;;;;;;6155664;23;20894;-87
2022/10/26 09:59:03;;;;;;;3.67;2.50;;;18.70;99.90;;;;;;6155805;23;20721;-87
2022/10/26 10:01:38;;;;;;;2.63;2.43;;;19.00;99.90;;;;;;6155695;23;20422;-87
2022/10/26 10:04:18;;;;;;;4.00;2.83;;;19.40;99.90;;;;;;6155682;23;20434;-88
2022/10/26 10:06:48;;;;;;;3.67;2.60;;;19.70;99.90;;;;;;6155273;23;20450;-87
2022/10/26 10:09:19;;;;;;;6.37;2.87;;;19.80;99.90;;;;;;6155597;23;20418;-87
2022/10/26 10:11:55;;;;;;;3.33;2.43;;;20.00;99.90;;;;;;6130185;23;20449;-87
2022/10/26 10:14:24;;;;;;;4.13;2.40;;;20.00;99.90;;;;;;6155974;23;20496;-87
2022/10/26 10:16:58;;;;;;;3.20;2.47;;;20.00;99.90;;;;;;6156621;23;20486;-86
2022/10/26 10:19:27;;;;;;;5.20;2.60;;;20.00;99.90;;;;;;6155771;23;20416;-86
2022/10/26 10:21:57;;;;;;;2.80;1.73;;;20.00;99.90;;;;;;6155739;23;20406;-87
2022/10/26 10:24:28;;;;;;;3.20;2.90;;;20.00;99.90;;;;;;6155090;23;20448;-86
2022/10/26 10:26:58;;;;;;;3.40;2.30;;;19.80;99.90;;;;;;6154822;23;20751;-86
2022/10/26 10:29:28;;;;;;;3.63;2.30;;;19.70;99.90;;;;;;6154994;23;20886;-86
2022/10/26 10:32:01;;;;;;;4.10;2.40;;;19.80;99.90;;;;;;6155549;23;20712;-86
2022/10/26 10:34:30;;;;;;;2.87;2.47;;;19.80;99.90;;;;;;6155225;23;20441;-86
2022/10/26 10:36:59;;;;;;;3.90;1.60;;;20.10;99.90;;;;;;6154696;23;21060;-86
2022/10/26 10:39:40;;;;;;;2.43;1.97;;;20.70;99.90;;;;;;6155043;23;20418;-86
2022/10/26 10:42:16;;;;;;;3.77;2.23;;;21.10;99.90;;;;;;6155295;23;20454;-86
2022/10/26 10:44:45;;;;;;;6.30;2.13;;;21.20;99.90;;;;;;6154902;23;20447;-88
2022/10/26 10:47:22;;;;;;;6.43;2.17;;;21.20;99.90;;;;;;6155292;23;20462;-86
2022/10/26 10:49:55;;;;;;;2.30;1.70;;;21.30;99.90;;;;;;6155153;23;20395;-85
2022/10/26 10:52:26;;;;;;;3.67;2.63;;;21.40;99.90;;;;;;6155357;23;20400;-86
2022/10/26 10:55:03;;;;;;;2.40;2.20;;;21.60;99.90;;;;;;6154923;23;20439;-85
2022/10/26 10:57:39;;;;;;;3.67;2.30;;;21.60;99.90;;;;;;6154829;23;20388;-85
2022/10/26 11:00:09;;;;;;;2.83;2.63;;;21.60;99.90;;;;;;6155207;23;20396;-85
2022/10/26 11:03:15;;;;;;;3.43;2.70;;;21.50;99.90;;;;;;6157928;23;20472;-85
2022/10/26 11:06:03;;;;;;;3.90;3.00;;;21.50;99.90;;;;;;6157076;23;20435;-85
2022/10/26 11:08:35;;;;;;;2.07;1.63;;;21.60;99.90;;;;;;6155021;23;20504;-85
2022/10/26 11:11:07;;;;;;;2.83;2.30;;;21.80;99.90;;;;;;6155262;23;20403;-85
2022/10/26 11:13:38;;;;;;;3.97;2.77;;;21.90;99.90;;;;;;6155120;23;20786;-86
2022/10/26 11:16:10;;;;;;;3.07;2.40;;;22.20;99.90;;;;;;6154680;23;20433;-85
2022/10/26 11:18:43;;;;;;;3.00;2.70;;;22.10;99.90;;;;;;6154496;23;20480;-85
2022/10/26 11:21:19;;;;;;;3.00;2.27;;;22.20;99.90;;;;;;6154702;23;20412;-85
2022/10/26 11:23:50;;;;;;;4.53;2.73;;;22.40;99.90;;;;;;6154979;23;20499;-85
2022/10/26 11:26:24;;;;;;;3.33;2.70;;;22.20;99.90;;;;;;6155279;23;20791;-85
2022/10/26 11:28:56;;;;;;;7.47;3.63;;;22.30;99.90;;;;;;6154744;23;20408;-85
2022/10/26 11:31:29;;;;;;;3.33;3.03;;;22.30;99.90;;;;;;6154841;23;20400;-85
2022/10/26 11:34:12;;;;;;;3.33;2.50;;;22.30;99.90;;;;;;6154718;23;20421;-86
2022/10/26 11:36:42;;;;;;;3.33;2.07;;;22.30;99.90;;;;;;6154338;23;20522;-85
2022/10/26 11:39:19;;;;;;;1.70;1.53;;;22.30;99.70;;;;;;6154577;23;20401;-85
2022/10/26 11:41:53;;;;;;;3.00;1.90;;;22.70;99.20;;;;;;6154490;23;20875;-86
2022/10/26 11:44:29;;;;;;;2.60;1.93;;;23.30;99.00;;;;;;6154211;23;20972;-87
2022/10/26 11:47:00;;;;;;;4.70;2.00;;;24.10;97.60;;;;;;6154600;23;20482;-87
2022/10/26 11:49:37;;;;;;;3.70;2.13;;;25.10;95.80;;;;;;6153946;23;20425;-87
2022/10/26 11:52:13;;;;;;;3.70;3.07;;;25.70;94.90;;;;;;6154694;23;20388;-88
2022/10/26 11:54:46;;;;;;;3.10;1.90;;;26.20;93.00;;;;;;6154648;23;20742;-88
2022/10/26 11:57:15;;;;;;;2.27;1.60;;;26.20;91.60;;;;;;6154607;23;20435;-87
2022/10/26 11:59:48;;;;;;;3.63;2.10;;;26.00;91.40;;;;;;6153938;23;20498;-87
2022/10/26 12:02:18;;;;;;;7.93;3.30;;;25.80;91.80;;;;;;6154184;23;20758;-87
2022/10/26 12:04:51;;;;;;;5.50;2.13;;;25.50;91.50;;;;;;6154594;23;20435;-87
2022/10/26 12:07:24;;;;;;;4.27;2.07;;;25.30;91.70;;;;;;6154270;23;20946;-87
2022/10/26 12:09:52;;;;;;;3.10;1.90;;;25.00;91.50;;;;;;6154388;23;20395;-87
2022/10/26 12:12:26;;;;;;;4.50;2.03;;;24.70;92.10;;;;;;6154572;23;20417;-87
2022/10/26 12:14:59;;;;;;;1.60;1.40;;;24.40;92.60;;;;;;6154551;23;20440;-86
2022/10/26 12:17:31;;;;;;;2.83;2.00;;;23.80;92.90;;;;;;6154384;23;20442;-86
2022/10/26 12:20:10;;;;;;;3.80;1.70;;;23.20;93.70;;;;;;6154450;23;20401;-86
2022/10/26 12:22:39;;;;;;;4.80;2.07;;;22.80;94.50;;;;;;6153709;23;20469;-86
2022/10/26 12:25:20;;;;;;;3.07;2.17;;;22.10;95.80;;;;;;6153476;23;20444;-86
2022/10/26 12:27:53;;;;;;;3.47;2.23;;;22.10;96.60;;;;;;6153515;23;20471;-86
2022/10/26 12:30:29;;;;;;;2.13;1.93;;;22.00;96.40;;;;;;6153848;23;20419;-86
2022/10/26 12:32:58;;;;;;;3.33;3.13;;;22.00;96.70;;;;;;6154688;23;20396;-86
2022/10/26 12:35:35;;;;;;;3.30;1.90;;;22.10;97.20;;;;;;6154249;23;21015;-86
2022/10/26 12:38:47;;;;;;;3.20;2.50;;;22.20;97.00;;;;;;6154272;23;20408;-86
2022/10/26 12:41:22;;;;;;;5.37;2.20;;;22.40;97.10;;;;;;6154123;23;20414;-86
2022/10/26 12:46:41;;;;;;;2.87;2.10;;;22.70;96.70;;;;;;6128117;23;20955;-84
2022/10/26 12:49:56;;;;;;;3.73;2.23;;;22.80;96.90;;;;;;6127942;23;20413;-83
2022/10/26 12:52:32;;;;;;;2.37;2.17;;;23.00;96.70;;;;;;6127970;23;20398;-83
2022/10/26 12:55:33;;;;;;;2.70;1.97;;;23.10;96.00;;;;;;6128041;23;20436;-82
2022/10/26 12:58:23;;;;;;;5.60;3.40;;;22.70;95.00;;;;;;6127731;23;20782;-83
2022/10/26 13:01:10;;;;;;;3.13;2.10;;;22.70;95.30;;;;;;6105272;23;20414;-83
2022/10/26 13:03:48;;;;;;;2.60;2.27;;;22.80;95.10;;;;;;6130134;23;20404;-83
2022/10/26 13:06:29;;;;;;;3.70;2.67;;;23.70;95.70;;;;;;6130057;23;20423;-83
2022/10/26 13:08:58;;;;;;;3.40;2.47;;;25.10;93.20;;;;;;6129516;23;20392;-83
2022/10/26 13:11:29;;;;;;;5.33;1.90;;;25.30;92.00;;;;;;6130479;23;20405;-83
2022/10/26 13:13:58;;;;;;;2.40;2.20;;;25.20;92.40;;;;;;6130997;23;20393;-82
2022/10/26 13:16:27;;;;;;;4.30;2.53;;;25.10;92.10;;;;;;6130320;23;20444;-82
2022/10/26 13:18:55;;;;;;;3.00;2.03;;;25.60;92.10;;;;;;6130957;23;20408;-83
2022/10/26 13:21:23;;;;;;;3.53;2.20;;;26.30;91.80;;;;;;6146740;23;20398;-82
2022/10/26 13:24:01;;;;;;;2.67;1.80;;;27.00;90.00;;;;;;6127923;23;20422;-82
2022/10/26 13:26:29;;;;;;;5.27;2.57;;;27.50;88.70;;;;;;6128387;23;20408;-82
2022/10/26 13:28:58;;;;;;;5.40;1.97;;;28.20;87.00;;;;;;6127572;23;20920;-82
2022/10/26 13:31:53;;;;;;;3.47;1.77;;;28.70;82.60;;;;;;6129297;23;20426;-83
2022/10/26 13:34:22;;;;;;;5.27;2.13;;;29.00;82.80;;;;;;6118411;23;20440;-83
2022/10/26 13:36:53;;;;;;;3.33;1.63;;;29.20;79.40;;;;;;6129660;23;20784;-83
2022/10/26 13:39:24;;;;;;;3.20;2.47;;;29.00;78.00;;;;;;6129910;23;20402;-83
2022/10/26 13:41:53;;;;;;;5.73;3.33;;;29.00;79.10;;;;;;6129351;23;20423;-83
2022/10/26 13:44:34;;;;;;;2.60;1.73;;;28.90;77.80;;;;;;6133750;23;21622;-83
2022/10/26 13:47:04;;;;;;;5.00;2.90;;;28.80;77.70;;;;;;6159448;23;20397;-83
2022/10/26 13:49:38;;;;;;;3.70;1.60;;;28.60;77.10;;;;;;6158864;23;20411;-83
2022/10/26 13:52:11;;;;;;;5.50;2.27;;;28.70;77.10;;;;;;6158236;23;20395;-82
2022/10/26 13:54:46;;;;;;;2.70;1.83;;;29.10;77.10;;;;;;6158615;23;20769;-82
2022/10/26 13:57:19;;;;;;;3.30;1.73;;;29.30;74.90;;;;;;6158100;23;20433;-82
2022/10/26 13:59:46;;;;;;;3.70;2.20;;;29.10;74.50;;;;;;6157419;23;20859;-82
2022/10/26 14:02:19;;;;;;;3.73;2.27;;;28.80;74.10;;;;;;6158640;23;20422;-82
2022/10/26 14:04:48;;;;;;;4.80;2.90;;;28.60;74.40;;;;;;6159115;23;20462;-83
2022/10/26 14:07:26;;;;;;;4.37;2.10;;;27.40;75.40;;;;;;6158801;23;20430;-83
2022/10/26 14:09:58;;;;;;;3.87;2.57;;;26.80;77.10;;;;;;6158327;23;20701;-83
2022/10/26 14:12:27;;;;;;;3.37;2.33;;;26.70;78.60;;;;;;6159051;23;20405;-83
2022/10/26 14:15:00;;;;;;;3.60;2.23;;;26.30;79.50;;;;;;6159276;23;20496;-82
2022/10/26 14:17:26;;;;;;;2.97;2.73;;;25.50;80.90;;;;;;6164028;23;20423;-82
2022/10/26 14:19:54;;;;;;;4.80;2.13;;;25.40;82.80;;;;;;6167911;23;20407;-82